Time;durP1;ratioP1;P1;durP2;ratioP2;P2;SDS_P1;SDS_P2;PMS_P1;PMS_P2;Temp;Humidity;BMP_temperature;BMP_pressure;BME280_temperature;BME280_humidity;BME280_pressure;Samples;Min_cycle;Max_cycle;Signal;HPM_P1;HPM_P2
2021/09/25 00:00:31;;;;;;;;;;;;;;;;;;5054153;28;20010;-66
2021/09/25 00:02:58;;;;;;;;;;;;;;;;;;5053883;28;20005;-66
2021/09/25 00:05:25;;;;;;;;;;;;;;;;;;5053723;28;20030;-66
2021/09/25 00:07:52;;;;;;;;;;;;;;;;;;5050967;28;20025;-66
2021/09/25 00:10:19;;;;;;;;;;;;;;;;;;5054002;28;20033;-66
2021/09/25 00:12:46;;;;;;;;;;;;;;;;;;5054644;28;20009;-66
2021/09/25 00:15:13;;;;;;;;;;;;;;;;;;5050128;28;20029;-66
2021/09/25 00:17:40;;;;;;;;;;;;;;;;;;5051291;28;20397;-66
2021/09/25 00:20:07;;;;;;;;;;;;;;;;;;5052657;28;20001;-66
2021/09/25 00:22:34;;;;;;;;;;;;;;;;;;5053947;28;20010;-66
2021/09/25 00:25:01;;;;;;;;;;;;;;;;;;5049990;28;20401;-66
2021/09/25 00:27:28;;;;;;;;;;;;;;;;;;5045424;28;20092;-67
2021/09/25 00:29:55;;;;;;;;;;;;;;;;;;5049817;28;20022;-67
2021/09/25 00:32:22;;;;;;;;;;;;;;;;;;5051576;28;20005;-67
2021/09/25 00:34:49;;;;;;;;;;;;;;;;;;5051361;28;20020;-67
2021/09/25 00:37:16;;;;;;;;;;;;;;;;;;5053545;28;20013;-67
2021/09/25 00:39:43;;;;;;;;;;;;;;;;;;5052896;28;20013;-67
2021/09/25 00:42:10;;;;;;;;;;;;;;;;;;5053213;28;20495;-67
2021/09/25 00:44:37;;;;;;;;;;;;;;;;;;5047575;28;20001;-67
2021/09/25 00:47:04;;;;;;;;;;;;;;;;;;5051899;28;20006;-67
2021/09/25 00:49:31;;;;;;;;;;;;;;;;;;5053397;28;20025;-67
2021/09/25 00:51:58;;;;;;;;;;;;;;;;;;5049769;28;20458;-68
2021/09/25 00:54:24;;;;;;;;;;;;;;;;;;5052261;28;20012;-68
2021/09/25 00:56:51;;;;;;;;;;;;;;;;;;5050622;28;20028;-67
2021/09/25 00:59:19;;;;;;;;;;;;;;;;;;5052803;28;20473;-67
2021/09/25 01:01:45;;;;;;;;;;;;;;;;;;5050872;28;20006;-68
2021/09/25 01:04:12;;;;;;;;;;;;;;;;;;5052452;28;20010;-66
2021/09/25 01:06:39;;;;;;;;;;;;;;;;;;5050212;28;20060;-67
2021/09/25 01:09:06;;;;;;;;;;;;;;;;;;5052563;28;20026;-67
2021/09/25 01:11:33;;;;;;;;;;;;;;;;;;5050214;28;20001;-67
2021/09/25 01:14:00;;;;;;;;;;;;;;;;;;5052913;28;20013;-67
2021/09/25 01:16:27;;;;;;;;;;;;;;;;;;5051429;28;20028;-67
2021/09/25 01:18:54;;;;;;;;;;;;;;;;;;5052756;28;20010;-66
2021/09/25 01:21:21;;;;;;;;;;;;;;;;;;5049420;28;20456;-66
2021/09/25 01:23:48;;;;;;;;;;;;;;;;;;5052396;28;20009;-67
2021/09/25 01:26:15;;;;;;;;;;;;;;;;;;5050257;28;20021;-68
2021/09/25 01:28:41;;;;;;;;;;;;;;;;;;5050958;28;20523;-68
2021/09/25 01:31:08;;;;;;;;;;;;;;;;;;5049673;28;20012;-67
2021/09/25 01:33:35;;;;;;;;;;;;;;;;;;5051666;28;20005;-67
2021/09/25 01:36:02;;;;;;;;;;;;;;;;;;5051422;28;20385;-66
2021/09/25 01:38:29;;;;;;;;;;;;;;;;;;5050405;28;20012;-67
2021/09/25 01:40:56;;;;;;;;;;;;;;;;;;5050169;28;20010;-67
2021/09/25 01:43:23;;;;;;;;;;;;;;;;;;5051369;28;20473;-67
2021/09/25 01:45:50;;;;;;;;;;;;;;;;;;5050894;28;20026;-67
2021/09/25 01:48:18;;;;;;;;;;;;;;;;;;5050965;28;20100;-67
2021/09/25 01:50:46;;;;;;;;;;;;;;;;;;5049829;28;20012;-67
2021/09/25 01:53:13;;;;;;;;;;;;;;;;;;5051390;28;20008;-67
2021/09/25 01:55:40;;;;;;;;;;;;;;;;;;5049746;28;20861;-68
2021/09/25 01:58:07;;;;;;;;;;;;;;;;;;5050086;28;20006;-67
2021/09/25 02:00:34;;;;;;;;;;;;;;;;;;5052043;28;20009;-67
2021/09/25 02:03:01;;;;;;;;;;;;;;;;;;5049966;28;20009;-67
2021/09/25 02:05:28;;;;;;;;;;;;;;;;;;5050322;28;20400;-67
2021/09/25 02:07:55;;;;;;;;;;;;;;;;;;5050606;28;20010;-67
2021/09/25 02:10:22;;;;;;;;;;;;;;;;;;5036152;28;20028;-67
2021/09/25 02:12:49;;;;;;;;;;;;;;;;;;5047128;28;20376;-67
2021/09/25 02:15:16;;;;;;;;;;;;;;;;;;5050206;28;20028;-68
2021/09/25 02:17:42;;;;;;;;;;;;;;;;;;5053237;28;20006;-67
2021/09/25 02:20:09;;;;;;;;;;;;;;;;;;5055863;28;20013;-66
2021/09/25 02:22:36;;;;;;;;;;;;;;;;;;5053735;28;20008;-66
2021/09/25 02:25:03;;;;;;;;;;;;;;;;;;5055720;28;20034;-66
2021/09/25 02:27:30;;;;;;;;;;;;;;;;;;5052790;28;20476;-66
2021/09/25 02:29:57;;;;;;;;;;;;;;;;;;5053968;28;20021;-67
2021/09/25 02:32:24;;;;;;;;;;;;;;;;;;5039150;28;20013;-66
2021/09/25 02:34:51;;;;;;;;;;;;;;;;;;5035437;28;20009;-67
2021/09/25 02:37:18;;;;;;;;;;;;;;;;;;5052120;28;20012;-67
2021/09/25 02:39:45;;;;;;;;;;;;;;;;;;5054306;28;20012;-67
2021/09/25 02:42:12;;;;;;;;;;;;;;;;;;5055171;28;20006;-66
2021/09/25 02:44:38;;;;;;;;;;;;;;;;;;5054542;28;20009;-66
2021/09/25 02:47:05;;;;;;;;;;;;;;;;;;5054257;28;20020;-67
2021/09/25 02:49:32;;;;;;;;;;;;;;;;;;5054990;28;20033;-67
2021/09/25 02:51:59;;;;;;;;;;;;;;;;;;5054651;28;20016;-67
2021/09/25 02:54:26;;;;;;;;;;;;;;;;;;5053457;28;20012;-67
2021/09/25 02:56:53;;;;;;;;;;;;;;;;;;5053694;28;20500;-67
2021/09/25 02:59:20;;;;;;;;;;;;;;;;;;5054941;28;20002;-67
2021/09/25 03:01:47;;;;;;;;;;;;;;;;;;5051802;28;20005;-67
2021/09/25 03:04:14;;;;;;;;;;;;;;;;;;5054780;28;20350;-68
2021/09/25 03:06:41;;;;;;;;;;;;;;;;;;5053603;28;20026;-67
2021/09/25 03:09:09;;;;;;;;;;;;;;;;;;5054661;28;20416;-67
2021/09/25 03:11:36;;;;;;;;;;;;;;;;;;5053462;28;20002;-67
2021/09/25 03:14:03;;;;;;;;;;;;;;;;;;5047631;28;20456;-67
2021/09/25 03:16:30;;;;;;;;;;;;;;;;;;5052804;28;20032;-67
2021/09/25 03:18:58;;;;;;;;;;;;;;;;;;5053822;28;20002;-67
2021/09/25 03:21:25;;;;;;;;;;;;;;;;;;5055633;28;20100;-67
2021/09/25 03:23:52;;;;;;;;;;;;;;;;;;5054683;28;20017;-67
2021/09/25 03:26:19;;;;;;;;;;;;;;;;;;5054594;28;20018;-67
2021/09/25 03:28:46;;;;;;;;;;;;;;;;;;5051238;28;20021;-67
2021/09/25 03:31:13;;;;;;;;;;;;;;;;;;5055312;28;20010;-67
2021/09/25 03:33:40;;;;;;;;;;;;;;;;;;5053709;28;20104;-68
2021/09/25 03:36:07;;;;;;;;;;;;;;;;;;5053673;28;20397;-67
2021/09/25 03:38:34;;;;;;;;;;;;;;;;;;5054980;28;20006;-67
2021/09/25 03:41:00;;;;;;;;;;;;;;;;;;5053830;28;20155;-67
2021/09/25 03:43:27;;;;;;;;;;;;;;;;;;5053064;28;20485;-67
2021/09/25 03:45:54;;;;;;;;;;;;;;;;;;5054236;28;20029;-67
2021/09/25 03:48:21;;;;;;;;;;;;;;;;;;5051437;28;20012;-67
2021/09/25 03:50:48;;;;;;;;;;;;;;;;;;5054279;28;20492;-67
2021/09/25 03:53:15;;;;;;;;;;;;;;;;;;5051403;28;20001;-68
2021/09/25 03:55:42;;;;;;;;;;;;;;;;;;5053183;28;20045;-68
2021/09/25 03:58:09;;;;;;;;;;;;;;;;;;5048635;28;20005;-68
2021/09/25 04:00:42;;;;;;;;;;;;;;;;;;5034318;28;20010;-67
2021/09/25 04:03:09;;;;;;;;;;;;;;;;;;5038177;28;20494;-68
2021/09/25 04:05:36;;;;;;;;;;;;;;;;;;5053524;28;20029;-67
2021/09/25 04:08:02;;;;;;;;;;;;;;;;;;5053475;28;20001;-68
2021/09/25 04:10:29;;;;;;;;;;;;;;;;;;5054031;28;20504;-68
2021/09/25 04:12:56;;;;;;;;;;;;;;;;;;5051420;28;20012;-67
2021/09/25 04:15:23;;;;;;;;;;;;;;;;;;5052154;28;20021;-67
2021/09/25 04:17:50;;;;;;;;;;;;;;;;;;5052546;28;20017;-67
2021/09/25 04:20:17;;;;;;;;;;;;;;;;;;5052995;28;20013;-68
2021/09/25 04:22:44;;;;;;;;;;;;;;;;;;5053694;28;20010;-69
2021/09/25 04:25:11;;;;;;;;;;;;;;;;;;5051397;28;20045;-68
2021/09/25 04:27:38;;;;;;;;;;;;;;;;;;5052608;28;20006;-69
2021/09/25 04:30:05;;;;;;;;;;;;;;;;;;5052721;28;20030;-68
2021/09/25 04:32:32;;;;;;;;;;;;;;;;;;5052977;28;20009;-69
2021/09/25 04:34:58;;;;;;;;;;;;;;;;;;5049513;28;20029;-67
2021/09/25 04:37:25;;;;;;;;;;;;;;;;;;5051199;28;20028;-68
2021/09/25 04:39:52;;;;;;;;;;;;;;;;;;5052565;28;20010;-68
2021/09/25 04:42:19;;;;;;;;;;;;;;;;;;5053147;28;20013;-68
2021/09/25 04:44:46;;;;;;;;;;;;;;;;;;5052213;28;20094;-67
2021/09/25 04:47:13;;;;;;;;;;;;;;;;;;5052315;28;20005;-68
2021/09/25 04:49:40;;;;;;;;;;;;;;;;;;5052245;28;20025;-67
2021/09/25 04:52:07;;;;;;;;;;;;;;;;;;5051966;28;20469;-68
2021/09/25 04:54:34;;;;;;;;;;;;;;;;;;5052308;28;20009;-67
2021/09/25 04:57:01;;;;;;;;;;;;;;;;;;5051190;28;20006;-67
2021/09/25 04:59:28;;;;;;;;;;;;;;;;;;5052269;28;20373;-68
2021/09/25 05:01:54;;;;;;;;;;;;;;;;;;5050124;28;20012;-67
2021/09/25 05:04:21;;;;;;;;;;;;;;;;;;5049211;28;20005;-68
2021/09/25 05:06:48;;;;;;;;;;;;;;;;;;5050787;28;20535;-67
2021/09/25 05:09:15;;;;;;;;;;;;;;;;;;5052933;28;20028;-68
2021/09/25 05:11:42;;;;;;;;;;;;;;;;;;5050239;28;20006;-67
2021/09/25 05:14:09;;;;;;;;;;;;;;;;;;5050999;28;20457;-66
2021/09/25 05:16:36;;;;;;;;;;;;;;;;;;5049875;28;20024;-67
2021/09/25 05:19:03;;;;;;;;;;;;;;;;;;5051596;28;20006;-67
2021/09/25 05:21:30;;;;;;;;;;;;;;;;;;5051457;28;20470;-67
2021/09/25 05:23:57;;;;;;;;;;;;;;;;;;5051237;28;20013;-69
2021/09/25 05:26:24;;;;;;;;;;;;;;;;;;5044839;28;20018;-69
2021/09/25 05:28:50;;;;;;;;;;;;;;;;;;5047196;28;20006;-67
2021/09/25 05:31:17;;;;;;;;;;;;;;;;;;5038899;28;20024;-67
2021/09/25 05:33:44;;;;;;;;;;;;;;;;;;5050687;28;20016;-67
2021/09/25 05:36:11;;;;;;;;;;;;;;;;;;5051351;28;20017;-68
2021/09/25 05:38:38;;;;;;;;;;;;;;;;;;5051582;28;20013;-68
2021/09/25 05:41:05;;;;;;;;;;;;;;;;;;5051835;28;20025;-67
2021/09/25 05:43:32;;;;;;;;;;;;;;;;;;5051055;28;20005;-68
2021/09/25 05:45:59;;;;;;;;;;;;;;;;;;5049731;28;20021;-67
2021/09/25 05:48:26;;;;;;;;;;;;;;;;;;5052436;28;20009;-67
2021/09/25 05:50:53;;;;;;;;;;;;;;;;;;5051114;28;20392;-67
2021/09/25 05:53:20;;;;;;;;;;;;;;;;;;5050892;28;20002;-67
2021/09/25 05:55:46;;;;;;;;;;;;;;;;;;5050589;28;20026;-68
2021/09/25 05:58:13;;;;;;;;;;;;;;;;;;5051501;28;20488;-68
2021/09/25 06:00:40;;;;;;;;;;;;;;;;;;5050849;28;20006;-67
2021/09/25 06:03:07;;;;;;;;;;;;;;;;;;5050889;28;20017;-67
2021/09/25 06:05:34;;;;;;;;;;;;;;;;;;5051660;28;20519;-68
2021/09/25 06:08:03;;;;;;;;;;;;;;;;;;5051019;28;20006;-67
2021/09/25 06:10:30;;;;;;;;;;;;;;;;;;5049399;28;20013;-67
2021/09/25 06:12:57;;;;;;;;;;;;;;;;;;5048772;28;20017;-69
2021/09/25 06:15:24;;;;;;;;;;;;;;;;;;5057355;28;20024;-67
2021/09/25 06:17:50;;;;;;;;;;;;;;;;;;5052621;28;20009;-67
2021/09/25 06:20:17;;;;;;;;;;;;;;;;;;5046355;28;20006;-68
2021/09/25 06:22:44;;;;;;;;;;;;;;;;;;5032376;28;20010;-67
2021/09/25 06:25:11;;;;;;;;;;;;;;;;;;5045421;28;20515;-68
2021/09/25 06:27:39;;;;;;;;;;;;;;;;;;5050260;28;20005;-68
2021/09/25 06:30:06;;;;;;;;;;;;;;;;;;5050026;28;20021;-68
2021/09/25 06:32:32;;;;;;;;;;;;;;;;;;5052090;28;20381;-67
2021/09/25 06:34:59;;;;;;;;;;;;;;;;;;5051830;28;20028;-67
2021/09/25 06:37:26;;;;;;;;;;;;;;;;;;5052151;28;20006;-67
2021/09/25 06:39:53;;;;;;;;;;;;;;;;;;5046976;28;20005;-68
2021/09/25 06:42:20;;;;;;;;;;;;;;;;;;5052045;28;20006;-68
2021/09/25 06:44:47;;;;;;;;;;;;;;;;;;5051661;28;20013;-67
2021/09/25 06:47:14;;;;;;;;;;;;;;;;;;5052679;28;20009;-68
2021/09/25 06:49:41;;;;;;;;;;;;;;;;;;5052914;28;20025;-67
2021/09/25 06:52:10;;;;;;;;;;;;;;;;;;5055395;28;20009;-68
2021/09/25 06:54:37;;;;;;;;;;;;;;;;;;5054642;28;20009;-68
2021/09/25 06:57:04;;;;;;;;;;;;;;;;;;5057671;28;20104;-68
2021/09/25 06:59:31;;;;;;;;;;;;;;;;;;5055601;28;20024;-68
2021/09/25 07:01:58;;;;;;;;;;;;;;;;;;5057644;28;20009;-69
2021/09/25 07:04:25;;;;;;;;;;;;;;;;;;5043370;28;20124;-68
2021/09/25 07:06:52;;;;;;;;;;;;;;;;;;5056544;28;20405;-69
2021/09/25 07:09:19;;;;;;;;;;;;;;;;;;5056030;28;20009;-69
2021/09/25 07:11:46;;;;;;;;;;;;;;;;;;5055200;28;20032;-68
2021/09/25 07:14:13;;;;;;;;;;;;;;;;;;5050373;28;20461;-68
2021/09/25 07:16:40;;;;;;;;;;;;;;;;;;5055453;28;20024;-67
2021/09/25 07:19:07;;;;;;;;;;;;;;;;;;5051954;28;20017;-68
2021/09/25 07:21:33;;;;;;;;;;;;;;;;;;5053445;28;20088;-67
2021/09/25 07:24:00;;;;;;;;;;;;;;;;;;5048878;28;20009;-68
2021/09/25 07:26:27;;;;;;;;;;;;;;;;;;5062693;28;20021;-68
2021/09/25 07:28:54;;;;;;;;;;;;;;;;;;5069617;28;20025;-67
2021/09/25 07:31:21;;;;;;;;;;;;;;;;;;5053845;28;20013;-68
2021/09/25 07:33:48;;;;;;;;;;;;;;;;;;5054797;28;20035;-68
2021/09/25 07:36:15;;;;;;;;;;;;;;;;;;5054650;28;20048;-68
2021/09/25 07:38:42;;;;;;;;;;;;;;;;;;5041172;28;20010;-68
2021/09/25 07:41:09;;;;;;;;;;;;;;;;;;5049795;28;20013;-68
2021/09/25 07:43:36;;;;;;;;;;;;;;;;;;5056202;28;20009;-68
2021/09/25 07:46:03;;;;;;;;;;;;;;;;;;5052331;28;20021;-67
2021/09/25 07:48:31;;;;;;;;;;;;;;;;;;5054818;28;20534;-68
2021/09/25 07:50:58;;;;;;;;;;;;;;;;;;5049306;28;20021;-68
2021/09/25 07:53:25;;;;;;;;;;;;;;;;;;5041378;28;20006;-68
2021/09/25 07:55:52;;;;;;;;;;;;;;;;;;5045011;28;20485;-68
2021/09/25 07:58:19;;;;;;;;;;;;;;;;;;5050111;28;20051;-68
2021/09/25 08:00:46;;;;;;;;;;;;;;;;;;5045959;28;20378;-69
2021/09/25 08:03:12;;;;;;;;;;;;;;;;;;5053168;28;20532;-68
2021/09/25 08:05:39;;;;;;;;;;;;;;;;;;5041963;28;20033;-68
2021/09/25 08:08:06;;;;;;;;;;;;;;;;;;5050212;28;20009;-66
2021/09/25 08:10:33;;;;;;;;;;;;;;;;;;5042182;28;20018;-66
2021/09/25 08:13:00;;;;;;;;;;;;;;;;;;5049029;28;20025;-66
2021/09/25 08:15:27;;;;;;;;;;;;;;;;;;5045321;28;20022;-68
2021/09/25 08:17:54;;;;;;;;;;;;;;;;;;5054498;28;20013;-68
2021/09/25 08:20:23;;;;;;;;;;;;;;;;;;5050302;28;20013;-68
2021/09/25 08:22:50;;;;;;;;;;;;;;;;;;5054590;28;20092;-67
2021/09/25 08:25:17;;;;;;;;;;;;;;;;;;5053437;28;20393;-68
2021/09/25 08:27:44;;;;;;;;;;;;;;;;;;5055978;28;20452;-68
2021/09/25 08:30:11;;;;;;;;;;;;;;;;;;5074148;28;20021;-67
2021/09/25 08:32:38;;;;;;;;;;;;;;;;;;5063892;28;20093;-68
2021/09/25 08:35:07;;;;;;;;;;;;;;;;;;5054195;28;20026;-68
2021/09/25 08:37:34;;;;;;;;;;;;;;;;;;5054325;28;20014;-67
2021/09/25 08:40:01;;;;;;;;;;;;;;;;;;5054685;28;20009;-68
2021/09/25 08:42:28;;;;;;;;;;;;;;;;;;5051576;28;20012;-68
2021/09/25 08:44:54;;;;;;;;;;;;;;;;;;5053453;28;20006;-68
2021/09/25 08:47:21;;;;;;;;;;;;;;;;;;5045509;28;20002;-68
2021/09/25 08:49:48;;;;;;;;;;;;;;;;;;5034629;28;20385;-68
2021/09/25 08:52:15;;;;;;;;;;;;;;;;;;5041268;28;20024;-68
2021/09/25 08:54:42;;;;;;;;;;;;;;;;;;5045688;28;20001;-68
2021/09/25 08:57:09;;;;;;;;;;;;;;;;;;5039423;28;20461;-67
2021/09/25 08:59:36;;;;;;;;;;;;;;;;;;5053962;28;20021;-68
2021/09/25 09:02:03;;;;;;;;;;;;;;;;;;5053330;28;20009;-68
2021/09/25 09:04:30;;;;;;;;;;;;;;;;;;5048851;28;20453;-68
2021/09/25 09:06:57;;;;;;;;;;;;;;;;;;5052895;28;20021;-68
2021/09/25 09:09:24;;;;;;;;;;;;;;;;;;5053366;28;20009;-67
2021/09/25 09:11:50;;;;;;;;;;;;;;;;;;5054425;28;20384;-67
2021/09/25 09:14:17;;;;;;;;;;;;;;;;;;5053367;28;20005;-67
2021/09/25 09:16:44;;;;;;;;;;;;;;;;;;5054402;28;20029;-67
2021/09/25 09:19:11;;;;;;;;;;;;;;;;;;5053828;28;20005;-72
2021/09/25 09:21:38;;;;;;;;;;;;;;;;;;5053655;28;20009;-71
2021/09/25 09:24:05;;;;;;;;;;;;;;;;;;5053255;28;20512;-70
2021/09/25 09:26:32;;;;;;;;;;;;;;;;;;5052138;28;20017;-70
2021/09/25 09:28:59;;;;;;;;;;;;;;;;;;5053343;28;20010;-70
2021/09/25 09:31:26;;;;;;;;;;;;;;;;;;5053386;28;20049;-70
2021/09/25 09:33:53;;;;;;;;;;;;;;;;;;5033482;28;20010;-70
2021/09/25 09:36:20;;;;;;;;;;;;;;;;;;5032943;28;20104;-70
2021/09/25 09:38:49;;;;;;;;;;;;;;;;;;5033420;28;20016;-70
2021/09/25 09:41:16;;;;;;;;;;;;;;;;;;5033758;28;20366;-70
2021/09/25 09:43:43;;;;;;;;;;;;;;;;;;5032852;28;20017;-71
2021/09/25 09:46:10;;;;;;;;;;;;;;;;;;5032867;28;20132;-71
2021/09/25 09:48:37;;;;;;;;;;;;;;;;;;5033383;28;20009;-70
2021/09/25 09:51:04;;;;;;;;;;;;;;;;;;5032830;28;20026;-71
2021/09/25 09:53:31;;;;;;;;;;;;;;;;;;5033330;28;20017;-70
2021/09/25 09:55:58;;;;;;;;;;;;;;;;;;5035246;28;20018;-71
2021/09/25 09:58:25;;;;;;;;;;;;;;;;;;5052567;28;20484;-70
2021/09/25 10:00:52;;;;;;;;;;;;;;;;;;5034997;28;20006;-71
2021/09/25 10:03:19;;;;;;;;;;;;;;;;;;5033488;28;20009;-70
2021/09/25 10:05:46;;;;;;;;;;;;;;;;;;5052191;28;20501;-70
2021/09/25 10:08:13;;;;;;;;;;;;;;;;;;5052873;28;20016;-70
2021/09/25 10:10:40;;;;;;;;;;;;;;;;;;5052365;28;20021;-70
2021/09/25 10:13:07;;;;;;;;;;;;;;;;;;5052510;28;20477;-71
2021/09/25 10:15:33;;;;;;;;;;;;;;;;;;5052553;28;20033;-70
2021/09/25 10:18:00;;;;;;;;;;;;;;;;;;5051004;28;20010;-71
2021/09/25 10:20:27;;;;;;;;;;;;;;;;;;5052775;28;20009;-71
2021/09/25 10:22:54;;;;;;;;;;;;;;;;;;5053134;28;20016;-70
2021/09/25 10:25:22;;;;;;;;;;;;;;;;;;5051953;28;20025;-70
2021/09/25 10:27:49;;;;;;;;;;;;;;;;;;5052793;28;20123;-70
2021/09/25 10:30:15;;;;;;;;;;;;;;;;;;5052970;28;20306;-71
2021/09/25 10:32:42;;;;;;;;;;;;;;;;;;5052565;28;20025;-70
2021/09/25 10:35:09;;;;;;;;;;;;;;;;;;5050912;28;20021;-70
2021/09/25 10:37:36;;;;;;;;;;;;;;;;;;5052940;28;20016;-71
2021/09/25 10:40:03;;;;;;;;;;;;;;;;;;5056221;28;20014;-70
2021/09/25 10:42:30;;;;;;;;;;;;;;;;;;5057498;28;20010;-70
2021/09/25 10:44:57;;;;;;;;;;;;;;;;;;5056590;28;20026;-70
2021/09/25 10:47:24;;;;;;;;;;;;;;;;;;5056228;28;20020;-70
2021/09/25 10:49:51;;;;;;;;;;;;;;;;;;5056004;28;20104;-70
2021/09/25 10:52:18;;;;;;;;;;;;;;;;;;5056348;28;20025;-71
2021/09/25 10:54:45;;;;;;;;;;;;;;;;;;5056581;28;20214;-70
2021/09/25 10:57:12;;;;;;;;;;;;;;;;;;5055801;28;20009;-70
2021/09/25 10:59:39;;;;;;;;;;;;;;;;;;5056339;28;20016;-70
2021/09/25 11:02:06;;;;;;;;;;;;;;;;;;5056225;28;20009;-70
2021/09/25 11:04:33;;;;;;;;;;;;;;;;;;5055743;28;20009;-70
2021/09/25 11:07:02;;;;;;;;;;;;;;;;;;5054303;28;20028;-69
2021/09/25 11:09:28;;;;;;;;;;;;;;;;;;5056828;28;20009;-70
2021/09/25 11:11:55;;;;;;;;;;;;;;;;;;5055857;28;20029;-70
2021/09/25 11:14:22;;;;;;;;;;;;;;;;;;5055589;28;20385;-70
2021/09/25 11:16:49;;;;;;;;;;;;;;;;;;5055176;28;20028;-70
2021/09/25 11:19:16;;;;;;;;;;;;;;;;;;5055758;28;20014;-70
2021/09/25 11:21:43;;;;;;;;;;;;;;;;;;5055567;28;20392;-70
2021/09/25 11:24:10;;;;;;;;;;;;;;;;;;5055565;28;20009;-70
2021/09/25 11:26:37;;;;;;;;;;;;;;;;;;5055473;28;20025;-70
2021/09/25 11:29:04;;;;;;;;;;;;;;;;;;5053759;28;20032;-70
2021/09/25 11:31:31;;;;;;;;;;;;;;;;;;5035568;28;20022;-70
2021/09/25 11:33:58;;;;;;;;;;;;;;;;;;5035128;28;20010;-69
2021/09/25 11:36:24;;;;;;;;;;;;;;;;;;5035229;28;20026;-70
2021/09/25 11:38:51;;;;;;;;;;;;;;;;;;5035341;28;20014;-70
2021/09/25 11:41:18;;;;;;;;;;;;;;;;;;5035316;28;20010;-70
2021/09/25 11:43:45;;;;;;;;;;;;;;;;;;5035888;28;20006;-70
2021/09/25 11:46:12;;;;;;;;;;;;;;;;;;5034704;28;20032;-70
2021/09/25 11:48:39;;;;;;;;;;;;;;;;;;5034456;28;20010;-70
2021/09/25 11:51:06;;;;;;;;;;;;;;;;;;5035106;28;20030;-70
2021/09/25 11:53:33;;;;;;;;;;;;;;;;;;5035478;28;20009;-70
2021/09/25 11:56:00;;;;;;;;;;;;;;;;;;5035287;28;20026;-70
2021/09/25 11:58:27;;;;;;;;;;;;;;;;;;5043597;28;20071;-68
2021/09/25 12:00:54;;;;;;;;;;;;;;;;;;5055176;28;20019;-71
2021/09/25 12:03:21;;;;;;;;;;;;;;;;;;5054850;28;20009;-71
2021/09/25 12:05:47;;;;;;;;;;;;;;;;;;5053678;28;20496;-71
2021/09/25 12:08:17;;;;;;;;;;;;;;;;;;5054779;28;20017;-71
2021/09/25 12:10:44;;;;;;;;;;;;;;;;;;5054631;28;20010;-71
2021/09/25 12:13:11;;;;;;;;;;;;;;;;;;5035938;28;20022;-71
2021/09/25 12:15:38;;;;;;;;;;;;;;;;;;5050861;28;20028;-71
2021/09/25 12:18:05;;;;;;;;;;;;;;;;;;5054710;28;20010;-71
2021/09/25 12:20:32;;;;;;;;;;;;;;;;;;5054581;28;20461;-71
2021/09/25 12:22:59;;;;;;;;;;;;;;;;;;5056349;28;20435;-71
2021/09/25 12:25:25;;;;;;;;;;;;;;;;;;5051883;28;20022;-70
2021/09/25 12:27:52;;;;;;;;;;;;;;;;;;5035988;28;20006;-71
2021/09/25 12:30:19;;;;;;;;;;;;;;;;;;5046455;28;20005;-71
2021/09/25 12:32:46;;;;;;;;;;;;;;;;;;5054215;28;20037;-71
2021/09/25 12:35:13;;;;;;;;;;;;;;;;;;5054011;28;20028;-71
2021/09/25 12:37:40;;;;;;;;;;;;;;;;;;5050592;28;20126;-71
2021/09/25 12:40:07;;;;;;;;;;;;;;;;;;5052987;28;20002;-71
2021/09/25 12:42:34;;;;;;;;;;;;;;;;;;5063076;28;20005;-69
2021/09/25 12:45:01;;;;;;;;;;;;;;;;;;5066038;28;20044;-71
2021/09/25 12:47:28;;;;;;;;;;;;;;;;;;5054197;28;20016;-71
2021/09/25 12:49:55;;;;;;;;;;;;;;;;;;5040878;28;20006;-71
2021/09/25 12:52:22;;;;;;;;;;;;;;;;;;5033681;28;20026;-71
2021/09/25 12:54:50;;;;;;;;;;;;;;;;;;5045667;28;20013;-71
2021/09/25 12:57:16;;;;;;;;;;;;;;;;;;5053682;28;20010;-71
2021/09/25 12:59:43;;;;;;;;;;;;;;;;;;5053646;28;20009;-71
2021/09/25 13:02:11;;;;;;;;;;;;;;;;;;5053428;28;20484;-70
2021/09/25 13:04:38;;;;;;;;;;;;;;;;;;5052675;28;20484;-71
2021/09/25 13:07:05;;;;;;;;;;;;;;;;;;5053780;28;20009;-71
2021/09/25 13:09:32;;;;;;;;;;;;;;;;;;5053460;28;20002;-71
2021/09/25 13:11:59;;;;;;;;;;;;;;;;;;5053751;28;20405;-69
2021/09/25 13:14:26;;;;;;;;;;;;;;;;;;5052816;28;20001;-71
2021/09/25 13:16:56;;;;;;;;;;;;;;;;;;5053176;28;20032;-72
2021/09/25 13:19:23;;;;;;;;;;;;;;;;;;5052201;28;20001;-71
2021/09/25 13:21:49;;;;;;;;;;;;;;;;;;5053282;28;20016;-71
2021/09/25 13:24:16;;;;;;;;;;;;;;;;;;5053195;28;20016;-71
2021/09/25 13:26:43;;;;;;;;;;;;;;;;;;5053629;28;20025;-71
2021/09/25 13:29:10;;;;;;;;;;;;;;;;;;5052720;28;20009;-71
2021/09/25 13:31:37;;;;;;;;;;;;;;;;;;5043431;28;20028;-70
2021/09/25 13:34:04;;;;;;;;;;;;;;;;;;5052976;28;20005;-72
2021/09/25 13:36:31;;;;;;;;;;;;;;;;;;5052624;28;20528;-69
2021/09/25 13:38:58;;;;;;;;;;;;;;;;;;5051473;28;20016;-71
2021/09/25 13:41:26;;;;;;;;;;;;;;;;;;5053052;28;20005;-71
2021/09/25 13:43:53;;;;;;;;;;;;;;;;;;5053541;28;20096;-72
2021/09/25 13:46:21;;;;;;;;;;;;;;;;;;5052765;28;20505;-71
2021/09/25 13:48:49;;;;;;;;;;;;;;;;;;5052760;28;20009;-71
2021/09/25 13:51:16;;;;;;;;;;;;;;;;;;5053270;28;20017;-71
2021/09/25 13:53:43;;;;;;;;;;;;;;;;;;5045697;28;20006;-69
2021/09/25 13:56:10;;;;;;;;;;;;;;;;;;5051852;28;20026;-69
2021/09/25 13:58:37;;;;;;;;;;;;;;;;;;5052273;28;20005;-69
2021/09/25 14:01:04;;;;;;;;;;;;;;;;;;5052053;28;20001;-69
2021/09/25 14:03:31;;;;;;;;;;;;;;;;;;5052706;28;20374;-71
2021/09/25 14:05:58;;;;;;;;;;;;;;;;;;5052089;28;20030;-69
2021/09/25 14:08:25;;;;;;;;;;;;;;;;;;5049727;28;20005;-69
2021/09/25 14:10:52;;;;;;;;;;;;;;;;;;5044314;28;20394;-69
2021/09/25 14:13:19;;;;;;;;;;;;;;;;;;5055671;28;20021;-67
2021/09/25 14:15:46;;;;;;;;;;;;;;;;;;5056873;28;20049;-71
2021/09/25 14:18:12;;;;;;;;;;;;;;;;;;5056945;28;20072;-71
2021/09/25 14:20:42;;;;;;;;;;;;;;;;;;5056384;28;20006;-72
2021/09/25 14:23:10;;;;;;;;;;;;;;;;;;5055999;28;20079;-71
2021/09/25 14:25:36;;;;;;;;;;;;;;;;;;5055615;28;20022;-72
2021/09/25 14:28:03;;;;;;;;;;;;;;;;;;5056952;28;20009;-71
2021/09/25 14:30:30;;;;;;;;;;;;;;;;;;5056293;28;20024;-69
2021/09/25 14:32:57;;;;;;;;;;;;;;;;;;5054030;28;20029;-72
2021/09/25 14:35:24;;;;;;;;;;;;;;;;;;5043250;28;20028;-71
2021/09/25 14:37:51;;;;;;;;;;;;;;;;;;5044418;28;20018;-71
2021/09/25 14:40:18;;;;;;;;;;;;;;;;;;5048009;28;20002;-72
2021/09/25 14:42:45;;;;;;;;;;;;;;;;;;5047101;28;20005;-68
2021/09/25 14:45:12;;;;;;;;;;;;;;;;;;5036388;28;20076;-70
2021/09/25 14:47:39;;;;;;;;;;;;;;;;;;5043505;28;20053;-70
2021/09/25 14:50:06;;;;;;;;;;;;;;;;;;5050245;28;20005;-70
2021/09/25 14:52:33;;;;;;;;;;;;;;;;;;5035936;28;20481;-70
2021/09/25 14:55:00;;;;;;;;;;;;;;;;;;5043251;28;20029;-70
2021/09/25 14:57:27;;;;;;;;;;;;;;;;;;5052558;28;20005;-71
2021/09/25 14:59:54;;;;;;;;;;;;;;;;;;5055105;28;20492;-71
2021/09/25 15:02:23;;;;;;;;;;;;;;;;;;5055318;28;20002;-70
2021/09/25 15:04:50;;;;;;;;;;;;;;;;;;5054783;28;20009;-70
2021/09/25 15:07:17;;;;;;;;;;;;;;;;;;5055159;28;20013;-71
2021/09/25 15:09:43;;;;;;;;;;;;;;;;;;5055624;28;20013;-70
2021/09/25 15:12:11;;;;;;;;;;;;;;;;;;5054399;28;20500;-69
2021/09/25 15:14:38;;;;;;;;;;;;;;;;;;5067800;28;20016;-69
2021/09/25 15:17:05;;;;;;;;;;;;;;;;;;5067924;28;20006;-69
2021/09/25 15:19:31;;;;;;;;;;;;;;;;;;5054148;28;20002;-69
2021/09/25 15:21:58;;;;;;;;;;;;;;;;;;5055597;28;20010;-69
2021/09/25 15:24:25;;;;;;;;;;;;;;;;;;5053499;28;20027;-68
2021/09/25 15:26:52;;;;;;;;;;;;;;;;;;5055193;28;20033;-70
2021/09/25 15:29:19;;;;;;;;;;;;;;;;;;5054483;28;20009;-69
2021/09/25 15:31:46;;;;;;;;;;;;;;;;;;5068603;28;20380;-69
2021/09/25 15:34:13;;;;;;;;;;;;;;;;;;5055662;28;20006;-68
2021/09/25 15:36:40;;;;;;;;;;;;;;;;;;5054077;28;20021;-69
2021/09/25 15:39:07;;;;;;;;;;;;;;;;;;5052386;28;20005;-70
2021/09/25 15:41:34;;;;;;;;;;;;;;;;;;5054402;28;20006;-69
2021/09/25 15:44:01;;;;;;;;;;;;;;;;;;5056012;28;20005;-70
2021/09/25 15:46:28;;;;;;;;;;;;;;;;;;5056257;28;20032;-70
2021/09/25 15:48:55;;;;;;;;;;;;;;;;;;5052899;28;20001;-71
2021/09/25 15:51:21;;;;;;;;;;;;;;;;;;5035905;28;20002;-70
2021/09/25 15:53:48;;;;;;;;;;;;;;;;;;5039693;28;20485;-72
2021/09/25 15:56:16;;;;;;;;;;;;;;;;;;5052136;28;20018;-72
2021/09/25 15:58:42;;;;;;;;;;;;;;;;;;5047017;28;20108;-72
2021/09/25 16:01:09;;;;;;;;;;;;;;;;;;5051956;28;20006;-72
2021/09/25 16:03:36;;;;;;;;;;;;;;;;;;5053787;28;20009;-71
2021/09/25 16:06:03;;;;;;;;;;;;;;;;;;5053927;28;20052;-72
2021/09/25 16:08:30;;;;;;;;;;;;;;;;;;5053664;28;20013;-72
2021/09/25 16:10:57;;;;;;;;;;;;;;;;;;5055197;28;20071;-72
2021/09/25 16:13:24;;;;;;;;;;;;;;;;;;5054516;28;20018;-72
2021/09/25 16:15:51;;;;;;;;;;;;;;;;;;5054910;28;20025;-72
2021/09/25 16:18:18;;;;;;;;;;;;;;;;;;5054235;28;20020;-72
2021/09/25 16:20:45;;;;;;;;;;;;;;;;;;5054036;28;20006;-72
2021/09/25 16:23:12;;;;;;;;;;;;;;;;;;5038921;28;20013;-70
2021/09/25 16:25:39;;;;;;;;;;;;;;;;;;5053323;28;20025;-70
2021/09/25 16:28:06;;;;;;;;;;;;;;;;;;5053016;28;20453;-70
2021/09/25 16:30:33;;;;;;;;;;;;;;;;;;5054387;28;20010;-70
2021/09/25 16:33:00;;;;;;;;;;;;;;;;;;5053483;28;20028;-70
2021/09/25 16:35:27;;;;;;;;;;;;;;;;;;5044249;28;20529;-70
2021/09/25 16:37:54;;;;;;;;;;;;;;;;;;5042994;28;20005;-70
2021/09/25 16:40:21;;;;;;;;;;;;;;;;;;5053143;28;20006;-70
2021/09/25 16:42:48;;;;;;;;;;;;;;;;;;5052806;28;20469;-70